createdAt,value
2022-09-21T00:01:19.960Z,4.57
2022-09-21T00:03:47.583Z,5.13
2022-09-21T00:06:17.352Z,5.70
2022-09-21T00:08:45.882Z,5.43
2022-09-21T00:11:18.743Z,5.27
2022-09-21T00:13:46.848Z,5.50
2022-09-21T00:16:16.217Z,6.43
2022-09-21T00:18:43.733Z,6.10
2022-09-21T00:21:14.094Z,6.90
2022-09-21T00:23:41.609Z,6.27
2022-09-21T00:26:11.201Z,6.40
2022-09-21T00:28:40.184Z,6.03
2022-09-21T00:31:12.992Z,6.20
2022-09-21T00:33:41.313Z,6.60
2022-09-21T00:36:12.139Z,6.83
2022-09-21T00:38:40.041Z,6.87
2022-09-21T00:41:08.533Z,8.77
2022-09-21T00:43:37.510Z,7.60
2022-09-21T00:46:14.113Z,8.20
2022-09-21T00:48:41.612Z,7.13
2022-09-21T00:51:09.391Z,6.60
2022-09-21T00:53:38.127Z,6.07
2022-09-21T00:56:06.867Z,5.57
2022-09-21T00:58:42.830Z,5.07
2022-09-21T01:01:11.104Z,5.30
2022-09-21T01:03:39.702Z,4.93
2022-09-21T01:06:06.669Z,5.20
2022-09-21T01:08:34.385Z,6.27
2022-09-21T01:11:38.758Z,5.43
2022-09-21T01:14:17.505Z,5.53
2022-09-21T01:17:16.736Z,5.00
2022-09-21T01:20:27.724Z,5.70
2022-09-21T01:23:09.405Z,4.97
2022-09-21T01:25:49.067Z,4.63
2022-09-21T01:28:44.188Z,4.87
2022-09-21T01:31:22.204Z,5.07
2022-09-21T01:33:55.522Z,5.33
2022-09-21T01:36:27.780Z,5.07
2022-09-21T01:39:00.261Z,5.27
2022-09-21T01:41:30.541Z,5.30
2022-09-21T01:44:02.953Z,4.83
2022-09-21T01:46:32.586Z,4.23
2022-09-21T01:49:14.825Z,4.60
2022-09-21T01:51:46.805Z,4.50
2022-09-21T01:54:21.447Z,4.13
2022-09-21T01:56:55.577Z,4.17
2022-09-21T01:59:32.697Z,4.77
2022-09-21T02:02:09.910Z,4.50
2022-09-21T02:04:38.966Z,4.20
2022-09-21T02:07:07.300Z,4.43
2022-09-21T02:09:36.636Z,3.70
2022-09-21T02:12:04.932Z,3.97
2022-09-21T02:14:33.652Z,3.77
2022-09-21T02:17:39.290Z,4.23
2022-09-21T02:20:17.536Z,4.40
2022-09-21T02:23:06.574Z,4.53
2022-09-21T02:25:46.225Z,4.30
2022-09-21T02:28:51.661Z,4.20
2022-09-21T02:31:49.876Z,4.67
2022-09-21T02:34:30.833Z,4.50
2022-09-21T02:37:07.164Z,4.23
2022-09-21T02:40:04.401Z,4.30
2022-09-21T02:42:40.741Z,4.27
2022-09-21T02:45:14.537Z,5.00
2022-09-21T02:47:56.723Z,4.00
2022-09-21T02:50:55.543Z,4.27
2022-09-21T02:53:29.810Z,4.53
2022-09-21T02:56:00.091Z,5.97
2022-09-21T02:58:28.528Z,10.83
2022-09-21T03:00:57.119Z,4.63
2022-09-21T03:03:24.833Z,4.03
2022-09-21T03:05:54.019Z,3.53
2022-09-21T03:08:22.094Z,3.57
2022-09-21T03:10:50.146Z,3.80
2022-09-21T03:13:18.823Z,4.20
2022-09-21T03:15:46.669Z,4.57
2022-09-21T03:18:14.137Z,3.70
2022-09-21T03:20:47.930Z,3.93
2022-09-21T03:23:15.201Z,4.23
2022-09-21T03:25:48.241Z,4.47
2022-09-21T03:28:16.326Z,3.80
2022-09-21T03:30:43.258Z,4.03
2022-09-21T03:33:10.990Z,4.53
2022-09-21T03:35:37.901Z,4.70
2022-09-21T03:38:04.912Z,4.00
2022-09-21T03:40:32.940Z,4.27
2022-09-21T03:42:59.925Z,4.53
2022-09-21T03:45:27.462Z,5.47
2022-09-21T03:47:58.989Z,5.53
2022-09-21T03:50:30.188Z,6.43
2022-09-21T03:52:57.658Z,7.47
2022-09-21T03:55:25.439Z,8.30
2022-09-21T03:57:52.427Z,9.07
2022-09-21T04:00:19.822Z,7.53
2022-09-21T04:02:46.931Z,6.20
2022-09-21T04:05:15.756Z,5.23
2022-09-21T04:07:45.718Z,5.00
2022-09-21T04:10:16.000Z,4.93
2022-09-21T04:12:44.177Z,4.63
2022-09-21T04:15:12.984Z,4.67
2022-09-21T04:17:40.143Z,4.53
2022-09-21T04:20:08.868Z,4.83
2022-09-21T04:22:39.931Z,5.83
2022-09-21T04:25:10.785Z,5.83
2022-09-21T04:27:37.680Z,6.87
2022-09-21T04:30:07.591Z,5.90
2022-09-21T04:32:34.670Z,5.83
2022-09-21T04:35:01.593Z,6.30
2022-09-21T04:37:28.429Z,6.50
2022-09-21T04:39:55.884Z,6.93
2022-09-21T04:42:23.326Z,7.47
2022-09-21T04:44:51.413Z,6.83
2022-09-21T04:47:19.390Z,7.00
2022-09-21T04:49:46.301Z,7.73
2022-09-21T04:52:18.304Z,8.03
2022-09-21T04:54:46.791Z,7.90
2022-09-21T04:57:15.114Z,9.53
2022-09-21T04:59:42.033Z,8.50
2022-09-21T05:02:09.136Z,9.07
2022-09-21T05:04:36.531Z,7.87
2022-09-21T05:07:03.899Z,7.90
2022-09-21T05:09:49.433Z,8.60
2022-09-21T05:12:16.414Z,8.83
2022-09-21T05:14:44.903Z,8.00
2022-09-21T05:17:12.747Z,7.73
2022-09-21T05:19:40.327Z,7.47
2022-09-21T05:22:07.325Z,7.53
2022-09-21T05:24:34.247Z,6.93
2022-09-21T05:27:01.484Z,6.90
2022-09-21T05:29:28.641Z,7.80
2022-09-21T05:32:02.982Z,7.80
2022-09-21T05:34:36.897Z,7.20
2022-09-21T05:37:33.172Z,7.40
2022-09-21T05:40:00.392Z,6.73
2022-09-21T05:42:27.565Z,6.80
2022-09-21T05:44:55.332Z,7.17
2022-09-21T05:47:44.722Z,7.77
2022-09-21T05:50:33.209Z,7.43
2022-09-21T05:53:48.427Z,7.50
2022-09-21T05:56:52.894Z,5.60
2022-09-21T05:59:37.916Z,4.53
2022-09-21T06:02:19.497Z,4.13
2022-09-21T06:04:49.504Z,3.30
2022-09-21T06:07:16.368Z,8.67
2022-09-21T06:09:46.395Z,18.70
2022-09-21T06:12:13.422Z,23.83
2022-09-21T06:14:40.990Z,22.23
2022-09-21T06:17:07.919Z,17.55
2022-09-21T06:19:34.893Z,6.38
2022-09-21T06:22:01.863Z,3.75
2022-09-21T06:24:28.739Z,3.35
2022-09-21T06:26:55.730Z,3.03
2022-09-21T06:29:23.757Z,2.90
2022-09-21T06:31:51.421Z,3.40
2022-09-21T06:34:18.816Z,3.33
2022-09-21T06:36:45.859Z,3.42
2022-09-21T06:39:13.056Z,3.65
2022-09-21T06:41:39.949Z,3.40
2022-09-21T06:44:10.442Z,3.05
2022-09-21T06:46:37.496Z,3.17
2022-09-21T06:49:04.395Z,3.83
2022-09-21T06:51:31.533Z,3.60
2022-09-21T06:53:59.073Z,3.67
2022-09-21T06:56:26.503Z,3.72
2022-09-21T06:58:54.940Z,3.60
2022-09-21T07:01:22.096Z,3.80
2022-09-21T07:03:51.409Z,3.58
2022-09-21T07:06:18.808Z,10.60
2022-09-21T07:11:33.087Z,3.63
2022-09-21T07:14:00.022Z,4.15
2022-09-21T07:16:28.024Z,3.75
2022-09-21T07:18:55.060Z,3.65
2022-09-21T07:21:22.239Z,3.80
2022-09-21T07:23:49.336Z,3.80
2022-09-21T07:26:16.444Z,10.10
2022-09-21T07:28:43.334Z,7.55
2022-09-21T07:31:14.036Z,4.25
2022-09-21T07:33:42.307Z,8.10
2022-09-21T07:36:10.758Z,7.28
2022-09-21T07:38:41.800Z,7.45
2022-09-21T07:41:13.187Z,4.43
2022-09-21T07:43:41.080Z,4.32
2022-09-21T07:46:11.044Z,6.05
2022-09-21T07:48:38.020Z,5.20
2022-09-21T07:51:07.280Z,5.13
2022-09-21T07:53:35.687Z,4.78
2022-09-21T07:56:14.039Z,4.80
2022-09-21T07:59:00.394Z,4.90
2022-09-21T08:01:28.438Z,4.57
2022-09-21T08:03:57.235Z,6.68
2022-09-21T08:06:26.894Z,7.07
2022-09-21T08:08:57.458Z,5.88
2022-09-21T08:11:25.992Z,4.93
2022-09-21T08:13:54.897Z,5.60
2022-09-21T08:16:22.309Z,5.13
2022-09-21T08:18:50.285Z,4.95
2022-09-21T08:21:17.773Z,5.85
2022-09-21T08:23:44.680Z,7.68
2022-09-21T08:26:19.060Z,6.05
2022-09-21T08:28:51.560Z,6.93
2022-09-21T08:31:21.451Z,9.70
2022-09-21T08:33:49.854Z,9.32
2022-09-21T08:36:17.630Z,7.25
2022-09-21T08:38:45.172Z,7.15
2022-09-21T08:41:49.706Z,9.07
2022-09-21T08:44:45.776Z,6.45
2022-09-21T08:47:20.231Z,7.05
2022-09-21T08:49:54.010Z,8.25
2022-09-21T08:52:24.855Z,6.00
2022-09-21T08:54:51.678Z,7.45
2022-09-21T08:57:19.847Z,7.72
2022-09-21T08:59:48.567Z,7.63
2022-09-21T09:02:33.574Z,7.50
2022-09-21T09:05:00.529Z,8.10
2022-09-21T09:07:52.439Z,6.05
2022-09-21T09:10:25.513Z,5.72
2022-09-21T09:13:09.377Z,5.20
2022-09-21T09:15:54.944Z,6.18
2022-09-21T09:18:46.163Z,5.95
2022-09-21T09:21:31.075Z,6.22
2022-09-21T09:24:05.019Z,5.18
2022-09-21T09:26:51.527Z,5.47
2022-09-21T09:29:52.485Z,5.30
2022-09-21T09:32:25.050Z,4.95
2022-09-21T09:35:26.446Z,5.55
2022-09-21T09:38:34.887Z,9.38
2022-09-21T09:41:07.785Z,5.18
2022-09-21T09:43:58.277Z,4.65
2022-09-21T09:46:37.173Z,4.10
2022-09-21T09:49:29.037Z,3.80
2022-09-21T09:51:55.957Z,5.88
2022-09-21T09:54:26.352Z,4.18
2022-09-21T09:56:55.137Z,7.10
2022-09-21T09:59:44.759Z,4.00
2022-09-21T10:02:22.247Z,3.30
2022-09-21T10:05:18.518Z,3.63
2022-09-21T10:07:48.720Z,3.80
2022-09-21T10:10:24.647Z,5.22
2022-09-21T10:12:54.859Z,4.65
2022-09-21T10:15:24.668Z,4.03
2022-09-21T10:18:13.543Z,3.55
2022-09-21T10:20:52.500Z,4.57
2022-09-21T10:23:19.727Z,4.32
2022-09-21T10:25:58.430Z,3.65
2022-09-21T10:28:26.233Z,6.65
2022-09-21T10:31:16.410Z,2.78
2022-09-21T10:34:01.966Z,3.50
2022-09-21T10:36:37.255Z,2.20
2022-09-21T10:39:28.209Z,1.67
2022-09-21T10:41:58.024Z,2.40
2022-09-21T10:44:44.505Z,3.20
2022-09-21T10:47:21.637Z,1.48
2022-09-21T10:49:54.923Z,1.70
2022-09-21T10:52:25.710Z,1.98
2022-09-21T10:54:56.238Z,2.22
2022-09-21T10:57:25.568Z,1.77
2022-09-21T10:59:52.629Z,2.90
2022-09-21T11:02:34.870Z,1.85
2022-09-21T11:05:10.796Z,1.70
2022-09-21T11:07:44.980Z,2.00
2022-09-21T11:10:28.883Z,1.70
2022-09-21T11:13:17.771Z,2.03
2022-09-21T11:15:58.944Z,1.70
2022-09-21T11:18:40.684Z,1.73
2022-09-21T11:21:35.647Z,1.92
2022-09-21T11:24:03.292Z,1.77
2022-09-21T11:26:51.711Z,2.50
2022-09-21T11:29:38.555Z,2.50
2022-09-21T11:32:32.695Z,2.20
2022-09-21T11:35:11.443Z,1.35
2022-09-21T11:37:56.457Z,1.20
2022-09-21T11:40:51.279Z,2.00
2022-09-21T11:43:24.540Z,1.45
2022-09-21T11:46:06.866Z,1.80
2022-09-21T11:48:40.180Z,1.17
2022-09-21T11:51:38.769Z,1.08
2022-09-21T11:54:42.420Z,1.10
2022-09-21T11:57:28.454Z,1.10
2022-09-21T12:00:08.395Z,1.17
2022-09-21T12:05:46.213Z,1.10
2022-09-21T12:08:34.373Z,1.10
2022-09-21T12:11:52.736Z,1.00
2022-09-21T12:14:23.815Z,1.40
2022-09-21T12:17:05.896Z,1.10
2022-09-21T12:19:45.036Z,1.50
2022-09-21T12:22:18.875Z,1.20
2022-09-21T12:24:54.710Z,1.60
2022-09-21T12:27:46.303Z,1.15
2022-09-21T12:30:19.799Z,1.30
2022-09-21T12:32:53.213Z,1.13
2022-09-21T12:35:44.650Z,1.30
2022-09-21T12:38:50.259Z,1.33
2022-09-21T12:41:28.764Z,1.60
2022-09-21T12:44:01.780Z,1.10
2022-09-21T12:46:38.029Z,1.20
2022-09-21T12:49:14.326Z,1.20
2022-09-21T12:51:50.215Z,0.98
2022-09-21T12:54:44.988Z,1.17
2022-09-21T12:57:42.584Z,1.20
2022-09-21T13:00:22.306Z,1.23
2022-09-21T13:03:08.372Z,1.50
2022-09-21T13:05:44.147Z,1.10
2022-09-21T13:08:13.327Z,1.45
2022-09-21T13:10:45.927Z,1.35
2022-09-21T13:13:34.279Z,1.45
2022-09-21T13:16:02.587Z,1.38
2022-09-21T13:18:36.409Z,1.75
2022-09-21T13:21:22.186Z,1.25
2022-09-21T13:24:23.648Z,1.25
2022-09-21T13:27:05.120Z,1.77
2022-09-21T13:29:34.586Z,1.20
2022-09-21T13:32:12.181Z,1.42
2022-09-21T13:34:43.829Z,1.15
2022-09-21T13:37:18.492Z,1.27
2022-09-21T13:40:12.760Z,1.15
2022-09-21T13:42:48.616Z,1.10
2022-09-21T13:45:18.792Z,1.13
2022-09-21T13:47:50.206Z,1.10
2022-09-21T13:50:32.319Z,1.63
2022-09-21T13:53:05.468Z,1.40
2022-09-21T13:55:42.296Z,1.45
2022-09-21T13:58:29.354Z,1.40
2022-09-21T14:01:03.375Z,1.45
2022-09-21T14:03:39.703Z,1.58
2022-09-21T14:06:11.828Z,1.40
2022-09-21T14:08:48.848Z,1.52
2022-09-21T14:11:31.621Z,1.40
2022-09-21T14:14:04.520Z,1.33
2022-09-21T14:16:34.283Z,1.20
2022-09-21T14:19:02.824Z,1.60
2022-09-21T14:21:30.117Z,1.40
2022-09-21T14:24:06.203Z,1.20
2022-09-21T14:26:42.499Z,1.80
2022-09-21T14:29:34.878Z,1.60
2022-09-21T14:32:04.335Z,1.23
2022-09-21T14:34:36.941Z,1.45
2022-09-21T14:37:15.873Z,1.30
2022-09-21T14:39:46.366Z,1.60
2022-09-21T14:42:20.202Z,1.70
2022-09-21T14:44:52.865Z,1.65
2022-09-21T14:47:44.919Z,2.13
2022-09-21T14:50:45.184Z,1.63
2022-09-21T14:53:41.504Z,1.40
2022-09-21T14:56:33.333Z,1.60
2022-09-21T14:59:32.697Z,1.70
2022-09-21T15:02:03.571Z,1.67
2022-09-21T15:04:47.810Z,1.83
2022-09-21T15:07:49.808Z,1.40
2022-09-21T15:10:49.707Z,1.35
2022-09-21T15:13:36.942Z,1.40
2022-09-21T15:16:22.716Z,1.30
2022-09-21T15:18:51.416Z,1.15
2022-09-21T15:21:26.387Z,1.75
2022-09-21T15:23:53.762Z,1.67
2022-09-21T15:26:29.385Z,1.55
2022-09-21T15:29:10.221Z,1.50
2022-09-21T15:31:39.925Z,1.65
2022-09-21T15:34:08.944Z,1.65
2022-09-21T15:36:40.835Z,1.80
2022-09-21T15:39:25.019Z,2.17
2022-09-21T15:42:10.514Z,2.13
2022-09-21T15:44:38.703Z,1.83
2022-09-21T15:47:12.732Z,1.92
2022-09-21T15:49:40.396Z,1.90
2022-09-21T15:52:17.912Z,2.10
2022-09-21T15:54:46.556Z,2.15
2022-09-21T15:57:38.604Z,1.90
2022-09-21T16:00:15.503Z,2.65
2022-09-21T16:02:50.801Z,1.90
2022-09-21T16:05:22.297Z,5.10
2022-09-21T16:07:49.697Z,9.05
2022-09-21T16:10:36.814Z,15.52
2022-09-21T16:13:30.703Z,26.63
2022-09-21T16:16:13.393Z,34.90
2022-09-21T16:18:44.434Z,35.03
2022-09-21T16:21:33.716Z,28.33
2022-09-21T16:24:18.029Z,16.08
2022-09-21T16:27:00.885Z,12.35
2022-09-21T16:29:38.357Z,26.00
2022-09-21T16:32:32.742Z,26.38
2022-09-21T16:35:22.021Z,36.20
2022-09-21T16:37:49.153Z,37.65
2022-09-21T16:40:16.064Z,17.27
2022-09-21T16:42:46.146Z,20.80
2022-09-21T16:45:23.105Z,7.57
2022-09-21T16:47:50.914Z,26.30
2022-09-21T16:50:19.474Z,26.42
2022-09-21T16:52:48.545Z,23.10
2022-09-21T16:55:18.213Z,12.75
2022-09-21T16:57:46.085Z,21.92
2022-09-21T17:00:14.248Z,13.85
2022-09-21T17:02:42.760Z,17.27
2022-09-21T17:05:10.035Z,11.80
2022-09-21T17:07:37.952Z,18.23
2022-09-21T17:10:16.451Z,10.53
2022-09-21T17:12:43.984Z,10.23
2022-09-21T17:15:13.041Z,19.53
2022-09-21T17:17:39.932Z,14.43
2022-09-21T17:20:33.907Z,8.17
2022-09-21T17:23:03.766Z,15.10
2022-09-21T17:25:32.833Z,7.50
2022-09-21T17:28:03.244Z,17.20
2022-09-21T17:30:30.241Z,13.97
2022-09-21T17:32:58.412Z,9.70
2022-09-21T17:35:41.794Z,5.23
2022-09-21T17:38:13.921Z,2.43
2022-09-21T17:40:42.610Z,3.00
2022-09-21T17:43:39.857Z,4.27
2022-09-21T17:46:15.437Z,4.40
2022-09-21T17:48:42.741Z,4.07
2022-09-21T17:51:10.445Z,3.23
2022-09-21T17:53:37.656Z,5.17
2022-09-21T17:56:34.682Z,8.30
2022-09-21T17:59:05.095Z,8.70
2022-09-21T18:01:33.886Z,9.53
2022-09-21T18:04:01.729Z,5.80
2022-09-21T18:06:29.462Z,7.70
2022-09-21T18:08:57.383Z,8.77
2022-09-21T18:11:49.296Z,9.63
2022-09-21T18:14:31.084Z,8.70
2022-09-21T18:17:13.348Z,9.17
2022-09-21T18:20:02.606Z,7.20
2022-09-21T18:22:47.635Z,4.70
2022-09-21T18:25:19.370Z,5.00
2022-09-21T18:27:48.666Z,4.97
2022-09-21T18:30:17.484Z,5.57
2022-09-21T18:32:44.412Z,4.10
2022-09-21T18:35:39.598Z,3.60
2022-09-21T18:38:22.211Z,3.30
2022-09-21T18:41:05.733Z,5.00
2022-09-21T18:43:35.442Z,5.87
2022-09-21T18:46:03.964Z,4.00
2022-09-21T18:48:51.711Z,7.93
2022-09-21T18:51:34.393Z,9.03
2022-09-21T18:54:01.422Z,9.13
2022-09-21T18:56:34.994Z,5.07
2022-09-21T18:59:02.961Z,6.27
2022-09-21T19:01:33.202Z,6.40
2022-09-21T19:04:01.418Z,6.00
2022-09-21T19:06:47.541Z,6.90
2022-09-21T19:09:44.728Z,9.23
2022-09-21T19:12:39.887Z,8.43
2022-09-21T19:15:42.172Z,10.03
2022-09-21T19:18:33.184Z,19.90
2022-09-21T19:21:06.235Z,7.63
2022-09-21T19:23:56.266Z,5.00
2022-09-21T19:26:38.245Z,15.20
2022-09-21T19:29:25.341Z,13.97
2022-09-21T19:31:52.354Z,14.10
2022-09-21T19:34:19.940Z,11.77
2022-09-21T19:36:47.410Z,14.43
2022-09-21T19:39:15.480Z,10.20
2022-09-21T19:41:43.233Z,5.37
2022-09-21T19:44:14.604Z,10.27
2022-09-21T19:47:06.658Z,8.67
2022-09-21T19:49:47.254Z,7.47
2022-09-21T19:52:19.670Z,18.93
2022-09-21T19:55:05.244Z,21.40
2022-09-21T19:57:52.487Z,15.00
2022-09-21T20:00:19.777Z,11.87
2022-09-21T20:03:03.316Z,15.73
2022-09-21T20:05:58.598Z,7.47
2022-09-21T20:08:42.211Z,7.67
2022-09-21T20:11:14.252Z,25.90
2022-09-21T20:13:50.141Z,13.40
2022-09-21T20:16:29.845Z,13.83
2022-09-21T20:19:28.341Z,8.90
2022-09-21T20:22:11.071Z,10.97
2022-09-21T20:24:48.274Z,13.47
2022-09-21T20:27:57.885Z,6.30
2022-09-21T20:30:33.161Z,11.50
2022-09-21T20:33:11.926Z,15.17
2022-09-21T20:35:38.831Z,14.57
2022-09-21T20:38:05.678Z,11.07
2022-09-21T20:40:32.903Z,8.73
2022-09-21T20:43:01.195Z,12.47
2022-09-21T20:45:29.301Z,12.60
2022-09-21T20:47:57.294Z,10.47
2022-09-21T20:50:30.354Z,13.37
2022-09-21T20:52:57.449Z,12.63
2022-09-21T20:55:25.338Z,10.67
2022-09-21T20:57:52.194Z,9.37
2022-09-21T21:00:19.445Z,10.27
2022-09-21T21:02:46.266Z,8.83
2022-09-21T21:05:13.205Z,9.23
2022-09-21T21:07:43.450Z,9.70
2022-09-21T21:10:15.647Z,7.23
2022-09-21T21:12:42.796Z,5.60
2022-09-21T21:15:11.018Z,11.10
2022-09-21T21:17:38.534Z,8.53
2022-09-21T21:20:07.153Z,10.87
2022-09-21T21:22:34.502Z,8.03
2022-09-21T21:25:01.453Z,6.70
2022-09-21T21:27:28.399Z,7.00
2022-09-21T21:29:55.703Z,7.60
2022-09-21T21:32:25.765Z,6.87
2022-09-21T21:34:54.141Z,6.80
2022-09-21T21:37:25.569Z,5.90
2022-09-21T21:39:53.447Z,5.87
2022-09-21T21:42:21.158Z,6.53
2022-09-21T21:44:49.413Z,6.03
2022-09-21T21:50:04.427Z,4.80
2022-09-21T21:52:31.353Z,4.47
2022-09-21T21:54:58.218Z,5.13
2022-09-21T21:57:25.276Z,4.33
2022-09-21T21:59:52.118Z,5.60
2022-09-21T22:02:19.135Z,5.03
2022-09-21T22:04:46.109Z,3.87
2022-09-21T22:07:13.025Z,3.77
2022-09-21T22:09:39.886Z,4.63
2022-09-21T22:12:06.949Z,5.27
2022-09-21T22:14:34.009Z,5.17
2022-09-21T22:17:00.881Z,4.30
2022-09-21T22:19:27.926Z,4.70
2022-09-21T22:21:54.836Z,4.43
2022-09-21T22:24:23.838Z,4.20
2022-09-21T22:26:51.074Z,4.40
2022-09-21T22:29:17.958Z,4.67
2022-09-21T22:31:47.295Z,4.80
2022-09-21T22:34:14.867Z,4.53
2022-09-21T22:36:43.838Z,4.87
2022-09-21T22:39:12.196Z,4.03
2022-09-21T22:41:41.255Z,4.30
2022-09-21T22:44:08.942Z,4.40
2022-09-21T22:46:36.219Z,4.40
2022-09-21T22:49:03.633Z,4.37
2022-09-21T22:51:31.084Z,4.50
2022-09-21T22:53:58.263Z,3.77
2022-09-21T22:56:30.889Z,4.33
2022-09-21T22:59:00.238Z,3.90
2022-09-21T23:01:40.536Z,3.60
2022-09-21T23:04:09.997Z,3.47
2022-09-21T23:06:42.409Z,3.60
2022-09-21T23:09:16.561Z,3.20
2022-09-21T23:11:47.455Z,3.83
2022-09-21T23:14:16.238Z,4.17
2022-09-21T23:16:43.623Z,4.03
2022-09-21T23:19:15.541Z,3.37
2022-09-21T23:21:49.689Z,4.10
2022-09-21T23:24:17.740Z,3.50
2022-09-21T23:26:45.577Z,4.30
2022-09-21T23:29:15.033Z,4.30
2022-09-21T23:31:45.385Z,3.87
2022-09-21T23:34:13.663Z,3.80
2022-09-21T23:36:41.614Z,4.13
2022-09-21T23:39:11.601Z,3.40
2022-09-21T23:41:39.203Z,3.30
2022-09-21T23:44:06.815Z,3.50
2022-09-21T23:46:36.424Z,3.23
2022-09-21T23:49:04.158Z,3.33
2022-09-21T23:51:31.185Z,3.20
2022-09-21T23:53:59.014Z,4.00
2022-09-21T23:56:26.482Z,3.87
2022-09-21T23:58:53.301Z,3.73
